Time;durP1;ratioP1;P1;durP2;ratioP2;P2;SDS_P1;SDS_P2;PMS_P1;PMS_P2;Temp;Humidity;BMP_temperature;BMP_pressure;BME280_temperature;BME280_humidity;BME280_pressure;Samples;Min_cycle;Max_cycle;Signal;HPM_P1;HPM_P2
2023/07/14 00:01:45;;;;;;;4.22;1.73;;;;;;;18.99;50.49;96985.47;6195263;23;20025;-82
2023/07/14 00:04:15;;;;;;;2.65;1.58;;;;;;;18.91;50.75;96994.50;6194074;23;20032;-80
2023/07/14 00:06:45;;;;;;;3.00;1.63;;;;;;;18.82;50.94;96988.72;6193311;23;20396;-82
2023/07/14 00:09:20;;;;;;;2.65;1.50;;;;;;;18.75;51.14;96990.63;6193789;23;20013;-81
2023/07/14 00:11:49;;;;;;;3.30;1.73;;;;;;;18.70;51.38;96993.16;6193294;23;20024;-80
2023/07/14 00:14:16;;;;;;;4.18;1.58;;;;;;;18.65;51.57;96982.44;6193218;23;20035;-83
2023/07/14 00:16:45;;;;;;;4.13;1.60;;;;;;;18.62;51.66;96980.25;6193497;23;20025;-81
2023/07/14 00:19:15;;;;;;;5.05;1.30;;;;;;;18.63;51.46;96979.19;6192258;23;20067;-81
2023/07/14 00:21:44;;;;;;;4.30;1.38;;;;;;;18.72;51.44;96975.25;6191653;23;20013;-79
2023/07/14 00:24:13;;;;;;;2.63;1.70;;;;;;;18.81;51.26;96983.69;6192221;23;20013;-82
2023/07/14 00:26:42;;;;;;;2.28;1.48;;;;;;;18.75;51.41;96969.50;6193269;23;20025;-82
2023/07/14 00:29:31;;;;;;;2.95;1.73;;;;;;;18.64;51.58;96968.41;6193904;23;20071;-83
2023/07/14 00:31:58;;;;;;;3.58;1.98;;;;;;;18.52;51.76;96976.31;6192789;23;20028;-82
2023/07/14 00:34:26;;;;;;;4.05;1.40;;;;;;;18.48;51.86;96972.50;6193036;23;20044;-82
2023/07/14 00:36:54;;;;;;;5.32;1.48;;;;;;;18.47;51.70;96972.72;6193015;23;20044;-81
2023/07/14 00:39:21;;;;;;;3.22;1.48;;;;;;;18.46;51.74;96977.19;6191860;23;20017;-84
2023/07/14 00:41:49;;;;;;;5.30;1.40;;;;;;;18.45;51.87;96975.56;6191589;23;20017;-84
2023/07/14 00:44:18;;;;;;;4.38;1.77;;;;;;;18.44;51.93;96978.44;6190601;23;20017;-82
2023/07/14 00:46:46;;;;;;;3.05;1.48;;;;;;;18.44;51.83;96981.09;6191027;23;20020;-82
2023/07/14 00:49:20;;;;;;;3.47;1.42;;;;;;;18.41;51.85;96978.88;6190234;23;20083;-80
2023/07/14 00:51:48;;;;;;;6.15;1.67;;;;;;;18.37;51.96;96978.53;6190339;23;20048;-80
2023/07/14 00:54:27;;;;;;;3.45;1.55;;;;;;;18.36;51.99;96970.81;6190023;23;20466;-80
2023/07/14 00:56:55;;;;;;;1.77;1.42;;;;;;;18.33;52.09;96972.06;6190791;23;20025;-80
2023/07/14 00:59:30;;;;;;;3.90;1.60;;;;;;;18.31;52.37;96974.13;6190576;23;20101;-82
2023/07/14 01:02:21;;;;;;;1.60;1.10;;;;;;;18.29;52.16;96968.25;6190693;23;20021;-81
2023/07/14 01:04:53;;;;;;;4.43;1.70;;;;;;;18.25;52.34;96969.72;6189423;23;20021;-81
2023/07/14 01:07:27;;;;;;;3.72;1.40;;;;;;;18.19;52.31;96960.03;6191244;23;20025;-80
2023/07/14 01:09:58;;;;;;;3.13;1.42;;;;;;;18.18;52.40;96959.25;6190309;23;20485;-81
2023/07/14 01:12:28;;;;;;;5.20;1.40;;;;;;;18.18;52.58;96961.09;6189798;23;20017;-80
2023/07/14 01:14:58;;;;;;;2.55;1.33;;;;;;;18.15;52.63;96953.59;6188930;23;20474;-81
2023/07/14 01:17:27;;;;;;;2.47;1.45;;;;;;;18.15;52.56;96961.50;6189357;23;20091;-79
2023/07/14 01:19:59;;;;;;;2.40;1.48;;;;;;;18.14;52.69;96954.63;6190265;23;20362;-79
2023/07/14 01:22:38;;;;;;;3.42;1.38;;;;;;;18.09;53.15;96956.09;6190691;23;20036;-80
2023/07/14 01:25:16;;;;;;;2.88;1.40;;;;;;;18.08;53.93;96957.13;6192275;23;20029;-83
2023/07/14 01:27:46;;;;;;;3.25;1.52;;;;;;;18.12;52.89;96950.34;6193458;23;20079;-83
2023/07/14 01:30:14;;;;;;;2.38;1.50;;;;;;;18.10;52.96;96951.63;6194691;23;20093;-83
2023/07/14 01:32:46;;;;;;;2.45;1.55;;;;;;;18.06;53.12;96946.00;6195010;23;20023;-80
2023/07/14 01:35:15;;;;;;;2.97;1.60;;;;;;;18.01;53.24;96939.75;6194485;23;20474;-83
2023/07/14 01:37:45;;;;;;;3.45;1.42;;;;;;;17.97;53.28;96955.19;6193938;23;20408;-85
2023/07/14 01:40:17;;;;;;;1.90;1.45;;;;;;;17.97;53.42;96947.28;6193952;23;20525;-81
2023/07/14 01:42:52;;;;;;;2.38;1.65;;;;;;;17.95;53.35;96946.72;6193382;23;20017;-83
2023/07/14 01:45:21;;;;;;;7.78;1.55;;;;;;;17.93;53.33;96946.13;6192565;23;20020;-82
2023/07/14 01:47:52;;;;;;;2.40;1.70;;;;;;;17.91;53.25;96948.19;6192361;23;20463;-84
2023/07/14 01:50:25;;;;;;;4.82;1.27;;;;;;;17.92;53.26;96952.44;6195213;23;20021;-86
2023/07/14 01:52:57;;;;;;;2.50;1.70;;;;;;;17.88;53.21;96948.59;6192017;23;20087;-82
2023/07/14 01:55:32;;;;;;;2.67;1.30;;;;;;;17.80;53.41;96941.78;6193618;23;20096;-82
2023/07/14 01:58:05;;;;;;;4.18;1.67;;;;;;;17.74;53.54;96947.13;6192218;23;20021;-80
2023/07/14 02:00:33;;;;;;;4.40;1.55;;;;;;;17.68;53.54;96940.88;6191249;23;20032;-80
2023/07/14 02:03:02;;;;;;;2.83;1.45;;;;;;;17.62;53.67;96939.94;6190516;23;20021;-83
2023/07/14 02:05:35;;;;;;;3.13;1.55;;;;;;;17.53;54.01;96943.84;6190784;23;20021;-79
2023/07/14 02:08:04;;;;;;;2.53;1.27;;;;;;;17.43;54.17;96936.44;6190258;23;20076;-82
2023/07/14 02:10:33;;;;;;;5.35;1.58;;;;;;;17.38;54.39;96933.66;6189389;23;20042;-83
2023/07/14 02:13:05;;;;;;;2.97;1.70;;;;;;;17.37;54.36;96937.31;6189607;23;20466;-80
2023/07/14 02:15:34;;;;;;;;;;;;;;;17.37;54.07;96936.50;6189969;23;20025;-80
2023/07/14 02:18:02;;;;;;;4.05;1.85;;;;;;;17.33;54.32;96936.13;6189415;23;19955;-82
2023/07/14 02:20:38;;;;;;;4.57;1.67;;;;;;;17.29;54.65;96941.03;6189015;23;20021;-82
2023/07/14 02:23:09;;;;;;;3.10;1.70;;;;;;;17.27;54.45;96940.44;6188989;23;20046;-79
2023/07/14 02:25:42;;;;;;;4.67;2.03;;;;;;;17.24;54.72;96935.59;6189079;23;20529;-83
2023/07/14 02:28:12;;;;;;;4.95;1.58;;;;;;;17.25;55.23;96945.13;6192368;23;20084;-83
2023/07/14 02:30:43;;;;;;;3.95;1.50;;;;;;;17.29;54.74;96935.75;6194409;23;20129;-83
2023/07/14 02:33:15;;;;;;;4.03;1.70;;;;;;;17.32;54.51;96944.25;6193434;23;20043;-84
2023/07/14 02:35:49;;;;;;;5.70;1.67;;;;;;;17.25;54.39;96937.22;6193719;23;20021;-83
2023/07/14 02:38:18;;;;;;;4.45;1.40;;;;;;;17.21;54.64;96949.22;6192602;23;20028;-81
2023/07/14 02:40:51;;;;;;;5.25;1.55;;;;;;;17.17;54.84;96937.47;6192664;23;20028;-83
2023/07/14 02:43:21;;;;;;;6.60;1.42;;;;;;;17.17;54.96;96932.19;6210472;23;20020;-83
2023/07/14 02:45:55;;;;;;;3.35;1.80;;;;;;;17.16;54.84;96941.13;6214418;23;20040;-86
2023/07/14 02:48:29;;;;;;;3.63;1.88;;;;;;;17.16;55.09;96940.31;6205767;23;20070;-84
2023/07/14 02:50:58;;;;;;;3.92;1.67;;;;;;;17.20;55.06;96939.66;6195174;23;20533;-83
2023/07/14 02:53:26;;;;;;;2.40;1.92;;;;;;;17.18;54.79;96933.81;6195562;23;20025;-83
2023/07/14 02:55:54;;;;;;;2.92;1.67;;;;;;;17.14;54.85;96934.44;6195401;23;20052;-86
2023/07/14 02:58:23;;;;;;;6.07;1.60;;;;;;;17.08;55.13;96931.66;6194757;23;20052;-83
2023/07/14 03:00:51;;;;;;;2.58;1.40;;;;;;;17.03;55.18;96936.78;6195290;23;20028;-81
2023/07/14 03:03:19;;;;;;;3.50;1.75;;;;;;;16.99;55.23;96927.69;6195786;23;20095;-84
2023/07/14 03:05:47;;;;;;;3.03;1.70;;;;;;;16.98;55.02;96931.31;6194431;23;20075;-86
2023/07/14 03:08:17;;;;;;;2.15;1.88;;;;;;;16.95;55.37;96933.59;6194786;23;20045;-85
2023/07/14 03:10:47;;;;;;;4.10;1.83;;;;;;;16.89;54.99;96928.16;6196293;23;20021;-86
2023/07/14 03:13:17;;;;;;;5.63;2.10;;;;;;;16.83;55.25;96934.25;6193785;23;20017;-85
2023/07/14 03:15:46;;;;;;;3.58;1.40;;;;;;;16.78;55.63;96928.81;6194301;23;20031;-84
2023/07/14 03:18:14;;;;;;;2.78;1.67;;;;;;;16.78;55.51;96917.47;6194351;23;20020;-83
2023/07/14 03:20:42;;;;;;;3.67;1.67;;;;;;;16.82;55.46;96922.13;6193238;23;20048;-79
2023/07/14 03:23:10;;;;;;;2.88;1.80;;;;;;;16.91;56.97;96922.66;6192855;23;20076;-80
2023/07/14 03:25:38;;;;;;;4.10;2.03;;;;;;;16.95;55.61;96917.78;6193155;23;20513;-82
2023/07/14 03:28:05;;;;;;;1.50;1.40;;;;;;;16.97;56.46;96915.75;6195114;23;20021;-83
2023/07/14 03:30:38;;;;;;;4.57;1.70;;;;;;;16.96;55.58;96919.38;6192642;23;20021;-85
2023/07/14 03:33:08;;;;;;;4.38;1.65;;;;;;;16.91;55.44;96914.75;6193600;23;20470;-81
2023/07/14 03:35:36;;;;;;;3.55;1.92;;;;;;;16.89;55.29;96912.34;6194106;23;20048;-84
2023/07/14 03:38:04;;;;;;;4.57;1.90;;;;;;;16.84;55.36;96909.53;6193193;23;20039;-81
2023/07/14 03:40:32;;;;;;;2.50;1.63;;;;;;;16.75;55.40;96910.81;6192776;23;20027;-84
2023/07/14 03:43:03;;;;;;;2.53;1.90;;;;;;;16.73;55.58;96904.13;6192787;23;20025;-79
2023/07/14 03:45:31;;;;;;;2.40;1.52;;;;;;;16.71;55.70;96901.72;6192657;23;20035;-83
2023/07/14 03:47:58;;;;;;;6.63;1.52;;;;;;;16.70;55.78;96902.72;6192732;23;20021;-80
2023/07/14 03:50:28;;;;;;;4.45;1.88;;;;;;;16.65;55.98;96902.56;6192578;23;20021;-82
2023/07/14 03:52:56;;;;;;;4.90;2.33;;;;;;;16.63;55.99;96909.84;6191986;23;20024;-82
2023/07/14 03:55:23;;;;;;;2.58;1.60;;;;;;;16.61;55.79;96909.25;6193283;23;20021;-83
2023/07/14 03:57:51;;;;;;;4.75;1.55;;;;;;;16.61;55.95;96904.00;6192495;23;20021;-80
2023/07/14 04:00:30;;;;;;;5.57;2.00;;;;;;;16.63;56.05;96894.06;6193487;23;20052;-84
2023/07/14 04:02:59;;;;;;;3.15;1.73;;;;;;;16.67;55.99;96889.97;6194260;23;20076;-83
2023/07/14 04:05:28;;;;;;;2.55;1.88;;;;;;;16.69;56.13;96891.38;6192368;23;20013;-83
2023/07/14 04:07:56;;;;;;;6.82;2.03;;;;;;;16.73;55.81;96885.69;6191397;23;20017;-81
2023/07/14 04:10:23;;;;;;;2.47;1.55;;;;;;;16.75;55.92;96883.63;6192589;23;20017;-80
2023/07/14 04:12:51;;;;;;;4.22;1.95;;;;;;;16.76;55.79;96887.88;6192783;23;20024;-81
2023/07/14 04:15:21;;;;;;;4.22;1.80;;;;;;;16.77;55.58;96885.06;6192868;23;20073;-82
2023/07/14 04:17:49;;;;;;;2.97;1.75;;;;;;;16.84;55.64;96879.75;6193873;23;20021;-80
2023/07/14 04:20:17;;;;;;;6.65;2.08;;;;;;;16.88;55.57;96884.38;6191632;23;20021;-80
2023/07/14 04:22:46;;;;;;;3.30;1.75;;;;;;;16.97;55.72;96886.75;6192403;23;20073;-80
2023/07/14 04:25:14;;;;;;;2.47;1.63;;;;;;;17.04;55.54;96882.25;6191847;23;20394;-82
2023/07/14 04:27:42;;;;;;;4.68;1.60;;;;;;;17.07;55.59;96889.69;6190339;23;20079;-80
2023/07/14 04:30:10;;;;;;;5.57;1.73;;;;;;;17.13;57.18;96893.31;6191931;23;20025;-82
2023/07/14 04:32:37;;;;;;;2.53;1.60;;;;;;;17.20;56.54;96888.78;6192230;23;20020;-79
2023/07/14 04:35:06;;;;;;;3.28;1.40;;;;;;;17.22;54.92;96874.34;6192253;23;20351;-81
2023/07/14 04:37:34;;;;;;;4.20;2.10;;;;;;;17.19;54.66;96880.06;6188608;23;20021;-80
2023/07/14 04:40:05;;;;;;;3.35;1.30;;;;;;;17.21;54.83;96890.41;6188595;23;20020;-80
2023/07/14 04:42:42;;;;;;;2.83;1.67;;;;;;;17.26;56.04;96888.72;6188013;23;20025;-79
2023/07/14 04:45:11;;;;;;;3.72;2.00;;;;;;;17.36;55.95;96892.69;6191517;23;20013;-81
2023/07/14 04:50:14;;;;;;;5.88;1.60;;;;;;;17.40;54.52;96883.31;6190042;23;20351;-80
2023/07/14 04:52:41;;;;;;;4.10;2.10;;;;;;;17.40;54.84;96884.13;6184752;23;20029;-78
2023/07/14 04:55:11;;;;;;;2.35;1.52;;;;;;;17.42;54.95;96883.91;6184818;23;20025;-80
2023/07/14 04:57:39;;;;;;;5.30;2.17;;;;;;;17.43;54.71;96888.19;6184932;23;20021;-76
2023/07/14 05:00:07;;;;;;;4.03;2.00;;;;;;;17.47;54.51;96884.06;6184401;23;20092;-76
2023/07/14 05:02:35;;;;;;;6.50;2.97;;;;;;;17.52;54.84;96878.16;6184813;23;20402;-77
2023/07/14 05:05:12;;;;;;;6.30;4.90;;;;;;;17.58;54.42;96877.25;6183953;23;20210;-76
2023/07/14 05:07:40;;;;;;;3.15;2.00;;;;;;;17.61;54.27;96875.00;6183869;23;20585;-77
2023/07/14 05:10:08;;;;;;;7.25;1.85;;;;;;;17.65;54.34;96881.44;6184517;23;20021;-77
2023/07/14 05:12:37;;;;;;;2.70;1.80;;;;;;;17.75;56.55;96880.91;6183870;23;20017;-77
2023/07/14 05:15:10;;;;;;;3.33;1.70;;;;;;;17.89;57.95;96878.97;6185385;23;20021;-78
2023/07/14 05:17:38;;;;;;;4.10;1.65;;;;;;;17.96;55.05;96882.34;6185032;23;20021;-77
2023/07/14 05:20:08;;;;;;;4.68;1.70;;;;;;;18.01;54.14;96885.13;6183990;23;20104;-77
2023/07/14 05:22:36;;;;;;;3.35;2.20;;;;;;;18.03;53.85;96876.97;6184327;23;20032;-77
2023/07/14 05:25:04;;;;;;;3.88;1.90;;;;;;;18.06;53.41;96881.81;6184188;23;20017;-77
2023/07/14 05:27:32;;;;;;;4.43;2.00;;;;;;;18.08;53.20;96875.31;6183965;23;20482;-77
2023/07/14 05:30:01;;;;;;;3.47;1.83;;;;;;;18.07;53.32;96863.13;6184155;23;20079;-77
2023/07/14 05:32:29;;;;;;;3.70;2.35;;;;;;;18.12;53.27;96865.88;6184256;23;20028;-77
2023/07/14 05:34:57;;;;;;;3.38;1.98;;;;;;;18.17;53.44;96867.03;6184370;23;20025;-77
2023/07/14 05:37:25;;;;;;;5.00;2.33;;;;;;;18.20;53.41;96859.50;6184167;23;20025;-77
2023/07/14 05:39:52;;;;;;;3.45;1.42;;;;;;;18.27;53.33;96856.75;6183764;23;20025;-76
2023/07/14 05:42:20;;;;;;;3.03;1.85;;;;;;;18.35;52.95;96853.81;6184241;23;20032;-77
2023/07/14 05:44:47;;;;;;;3.35;1.90;;;;;;;18.39;52.70;96860.25;6184048;23;20025;-75
2023/07/14 05:47:16;;;;;;;3.85;1.95;;;;;;;18.46;52.87;96860.97;6183757;23;20482;-75
2023/07/14 05:49:44;;;;;;;2.67;1.60;;;;;;;18.51;52.81;96863.72;6183100;23;20537;-75
2023/07/14 05:52:12;;;;;;;11.05;2.92;;;;;;;18.58;52.54;96860.19;6183809;23;20021;-75
2023/07/14 05:54:40;;;;;;;8.00;2.92;;;;;;;18.65;52.63;96860.88;6183733;23;20028;-75
2023/07/14 05:57:08;;;;;;;3.78;2.80;;;;;;;18.74;52.17;96867.47;6183826;23;20021;-75
2023/07/14 05:59:35;;;;;;;4.15;3.25;;;;;;;18.79;51.46;96859.69;6193314;23;20025;-75
2023/07/14 06:02:03;;;;;;;5.22;2.97;;;;;;;18.85;51.51;96864.06;6193965;23;20076;-74
2023/07/14 06:04:36;;;;;;;5.05;2.67;;;;;;;18.93;51.18;96862.91;6183782;23;20024;-74
2023/07/14 06:07:04;;;;;;;3.83;2.95;;;;;;;19.00;51.24;96852.25;6183794;23;20048;-75
2023/07/14 06:09:33;;;;;;;5.35;3.03;;;;;;;19.07;51.04;96858.25;6185520;23;20029;-75
2023/07/14 06:12:02;;;;;;;5.55;2.60;;;;;;;19.14;50.87;96856.28;6184970;23;20032;-75
2023/07/14 06:14:30;;;;;;;3.97;2.95;;;;;;;19.22;50.78;96855.13;6185446;23;20025;-75
2023/07/14 06:16:57;;;;;;;4.78;2.72;;;;;;;19.30;50.41;96860.84;6185286;23;20021;-75
2023/07/14 06:19:25;;;;;;;5.35;2.63;;;;;;;19.39;50.18;96858.66;6185080;23;20029;-75
2023/07/14 06:21:54;;;;;;;3.58;2.75;;;;;;;19.49;50.03;96863.41;6185441;23;20025;-76
2023/07/14 06:24:22;;;;;;;3.38;2.45;;;;;;;19.58;49.91;96855.91;6185209;23;20025;-76
2023/07/14 06:26:50;;;;;;;5.55;3.45;;;;;;;19.67;49.48;96860.59;6185511;23;20017;-75
2023/07/14 06:29:19;;;;;;;3.40;2.95;;;;;;;19.77;49.16;96857.41;6185597;23;20088;-76
2023/07/14 06:31:46;;;;;;;7.30;3.00;;;;;;;19.86;48.98;96857.84;6186065;23;20021;-76
2023/07/14 06:34:14;;;;;;;5.97;3.63;;;;;;;19.91;48.74;96850.78;6185656;23;20032;-76
2023/07/14 06:36:42;;;;;;;4.32;2.88;;;;;;;19.96;48.79;96850.06;6185599;23;20021;-75
2023/07/14 06:39:12;;;;;;;4.60;2.63;;;;;;;20.01;48.57;96844.91;6185085;23;20025;-75
2023/07/14 06:41:39;;;;;;;4.53;2.17;;;;;;;20.09;48.08;96835.75;6185193;23;20022;-75
2023/07/14 06:44:07;;;;;;;5.25;2.38;;;;;;;20.16;48.05;96836.44;6185688;23;20024;-76
2023/07/14 06:46:52;;;;;;;6.38;1.80;;;;;;;20.25;47.95;96832.38;6185445;23;20017;-75
2023/07/14 06:49:19;;;;;;;3.83;2.20;;;;;;;20.34;47.61;96830.94;6184727;23;20137;-75
2023/07/14 06:51:50;;;;;;;4.07;2.38;;;;;;;20.43;48.04;96831.34;6184788;23;20025;-76
2023/07/14 06:54:19;;;;;;;5.65;1.88;;;;;;;20.53;47.82;96836.84;6185115;23;20029;-76
2023/07/14 06:56:47;;;;;;;3.88;2.45;;;;;;;20.63;47.98;96828.25;6184846;23;20021;-75
2023/07/14 06:59:14;;;;;;;3.17;2.03;;;;;;;20.73;47.44;96836.38;6184995;23;20052;-76
2023/07/14 07:01:42;;;;;;;7.35;2.05;;;;;;;20.79;47.38;96834.59;6184913;23;20406;-75
2023/07/14 07:04:10;;;;;;;7.38;2.13;;;;;;;20.86;47.45;96829.13;6185051;23;20096;-75
2023/07/14 07:06:37;;;;;;;4.72;1.33;;;;;;;20.89;47.44;96820.72;6185064;23;20017;-74
2023/07/14 07:09:05;;;;;;;3.05;1.70;;;;;;;20.94;47.41;96821.59;6184982;23;20021;-75
2023/07/14 07:11:35;;;;;;;3.22;1.60;;;;;;;21.00;46.76;96822.47;6184747;23;20055;-76
2023/07/14 07:14:03;;;;;;;2.35;1.23;;;;;;;21.05;46.24;96816.44;6184837;23;20032;-75
2023/07/14 07:16:30;;;;;;;3.75;1.40;;;;;;;21.11;46.17;96816.28;6185233;23;20420;-76
2023/07/14 07:18:58;;;;;;;3.47;1.40;;;;;;;21.20;45.95;96808.69;6185012;23;20332;-75
2023/07/14 07:21:26;;;;;;;5.72;1.70;;;;;;;21.26;44.70;96810.38;6184737;23;20036;-75
2023/07/14 07:23:53;;;;;;;2.70;1.58;;;;;;;21.33;44.12;96812.84;6184934;23;20029;-76
2023/07/14 07:26:21;;;;;;;2.08;1.73;;;;;;;21.38;43.91;96812.91;6184830;23;20021;-76
2023/07/14 07:28:50;;;;;;;2.08;1.35;;;;;;;21.43;43.71;96806.91;6184718;23;20091;-75
2023/07/14 07:31:18;;;;;;;2.38;1.38;;;;;;;21.50;43.34;96807.53;6184596;23;20025;-75
2023/07/14 07:33:46;;;;;;;3.78;1.52;;;;;;;21.57;43.19;96808.16;6184801;23;20025;-75
2023/07/14 07:36:17;;;;;;;2.20;1.33;;;;;;;21.65;43.25;96814.91;6185264;23;20021;-75
2023/07/14 07:38:47;;;;;;;3.13;1.50;;;;;;;21.75;43.15;96810.47;6184578;23;20471;-75
2023/07/14 07:41:15;;;;;;;2.25;1.52;;;;;;;21.85;42.85;96811.69;6184598;23;20099;-75
2023/07/14 07:43:43;;;;;;;1.95;1.35;;;;;;;21.92;42.98;96812.28;6184397;23;20029;-76
2023/07/14 07:46:13;;;;;;;2.17;1.42;;;;;;;22.00;42.02;96811.84;6184667;23;20021;-76
2023/07/14 07:48:44;;;;;;;2.47;1.60;;;;;;;22.04;41.32;96801.50;6184449;23;20017;-75
2023/07/14 07:51:13;;;;;;;8.43;1.67;;;;;;;22.10;41.38;96796.00;6184651;23;20099;-76
2023/07/14 07:53:40;;;;;;;2.90;1.20;;;;;;;22.18;41.78;96787.56;6185043;23;20055;-75
2023/07/14 07:56:10;;;;;;;2.33;1.25;;;;;;;22.30;42.09;96794.63;6184969;23;20095;-75
2023/07/14 07:58:38;;;;;;;3.17;1.63;;;;;;;22.42;42.13;96797.91;6184607;23;20474;-76
2023/07/14 08:01:07;;;;;;;2.13;1.17;;;;;;;22.52;41.03;96791.88;6184333;23;20091;-76
2023/07/14 08:03:37;;;;;;;3.45;1.13;;;;;;;22.61;41.40;96783.19;6184802;23;20024;-75
2023/07/14 08:06:07;;;;;;;3.20;1.40;;;;;;;22.72;41.36;96770.78;6183984;23;20091;-75
2023/07/14 08:08:34;;;;;;;2.58;1.17;;;;;;;22.86;41.04;96771.13;6184457;23;20052;-75
2023/07/14 08:11:02;;;;;;;2.53;1.83;;;;;;;22.95;40.20;96766.94;6201610;23;20017;-75
2023/07/14 08:13:30;;;;;;;3.65;1.55;;;;;;;23.04;40.57;96773.41;6184075;23;20101;-75
2023/07/14 08:15:59;;;;;;;2.90;1.70;;;;;;;23.15;40.47;96773.47;6184296;23;20021;-76
2023/07/14 08:18:27;;;;;;;6.25;1.60;;;;;;;23.21;39.13;96767.13;6184165;23;20021;-75
2023/07/14 08:20:56;;;;;;;4.28;1.42;;;;;;;23.28;39.43;96767.69;6183448;23;20025;-76
2023/07/14 08:23:24;;;;;;;2.05;1.27;;;;;;;23.37;39.29;96768.78;6184295;23;20025;-76
2023/07/14 08:25:58;;;;;;;3.90;1.25;;;;;;;23.49;39.12;96767.78;6184366;23;20116;-76
2023/07/14 08:28:26;;;;;;;3.83;1.25;;;;;;;23.57;38.39;96762.75;6183930;23;20071;-76
2023/07/14 08:30:55;;;;;;;3.47;1.17;;;;;;;23.65;37.64;96764.91;6183890;23;20055;-76
2023/07/14 08:33:25;;;;;;;2.45;1.15;;;;;;;23.74;37.56;96767.06;6184323;23;20032;-75
2023/07/14 08:35:53;;;;;;;3.50;0.98;;;;;;;23.83;37.64;96766.34;6184239;23;20096;-75
2023/07/14 08:38:22;;;;;;;2.45;1.30;;;;;;;23.94;37.05;96764.50;6184508;23;20459;-76
2023/07/14 08:40:53;;;;;;;2.58;1.08;;;;;;;24.05;36.49;96770.63;6184162;23;20245;-76
2023/07/14 08:43:44;;;;;;;1.98;0.90;;;;;;;24.11;36.42;96763.44;6184276;23;20071;-76
2023/07/14 08:46:18;;;;;;;5.13;1.00;;;;;;;24.20;36.42;96759.19;6184373;23;20017;-76
2023/07/14 08:48:53;;;;;;;2.58;1.00;;;;;;;24.30;37.12;96761.88;6183698;23;20017;-76
2023/07/14 08:51:31;;;;;;;4.68;1.10;;;;;;;24.45;36.17;96753.09;6184014;23;20056;-75
2023/07/14 08:54:06;;;;;;;2.67;0.80;;;;;;;24.56;36.40;96754.72;6184780;23;20021;-76
2023/07/14 08:56:37;;;;;;;1.73;0.70;;;;;;;24.64;35.53;96764.84;6184504;23;20032;-76
2023/07/14 08:59:06;;;;;;;1.38;0.80;;;;;;;24.72;35.28;96760.03;6183979;23;20029;-76
2023/07/14 09:01:37;;;;;;;1.98;1.00;;;;;;;24.78;35.30;96748.28;6183970;23;20032;-76
2023/07/14 09:04:11;;;;;;;1.88;0.95;;;;;;;24.86;35.24;96748.53;6183584;23;20056;-75
2023/07/14 09:06:39;;;;;;;4.03;0.95;;;;;;;24.94;35.18;96749.06;6183727;23;20024;-76
2023/07/14 09:09:15;;;;;;;2.45;1.17;;;;;;;24.93;33.84;96747.47;6183573;23;20029;-76
2023/07/14 09:11:52;;;;;;;3.03;1.27;;;;;;;24.90;34.52;96753.31;6183842;23;20021;-75
2023/07/14 09:14:43;;;;;;;3.35;0.80;;;;;;;24.97;35.54;96754.66;6184078;23;20025;-76
2023/07/14 09:17:20;;;;;;;1.83;0.95;;;;;;;25.07;34.45;96741.28;6184282;23;20021;-76
2023/07/14 09:20:19;;;;;;;1.98;0.90;;;;;;;25.13;35.60;96741.28;6183960;23;20029;-75
2023/07/14 09:22:52;;;;;;;2.20;1.17;;;;;;;25.23;35.25;96735.91;6184136;23;20025;-75
2023/07/14 09:25:31;;;;;;;2.85;0.73;;;;;;;25.33;34.77;96727.88;6184398;23;20406;-76
2023/07/14 09:28:00;;;;;;;3.20;1.30;;;;;;;25.45;34.34;96728.38;6183903;23;20020;-76
2023/07/14 09:30:29;;;;;;;6.60;1.33;;;;;;;25.56;34.45;96721.13;6183678;23;20021;-75
2023/07/14 09:33:03;;;;;;;3.72;1.15;;;;;;;25.67;34.30;96719.16;6184045;23;20095;-76
2023/07/14 09:35:31;;;;;;;2.75;1.00;;;;;;;25.75;34.28;96709.78;6184117;23;20032;-76
2023/07/14 09:38:05;;;;;;;5.32;1.38;;;;;;;25.82;34.39;96726.28;6183925;23;20017;-76
2023/07/14 09:40:36;;;;;;;2.30;0.65;;;;;;;25.93;33.63;96721.72;6183694;23;20063;-76
2023/07/14 09:43:06;;;;;;;2.67;1.20;;;;;;;25.99;32.99;96715.28;6184354;23;20021;-76
2023/07/14 09:45:36;;;;;;;1.90;0.90;;;;;;;26.04;33.00;96720.56;6185665;23;20079;-76
2023/07/14 09:48:12;;;;;;;3.55;0.95;;;;;;;26.07;33.52;96725.38;6185094;23;20017;-76
2023/07/14 09:50:46;;;;;;;1.30;1.00;;;;;;;26.12;32.65;96713.84;6185203;23;20068;-75
2023/07/14 09:53:14;;;;;;;2.65;0.98;;;;;;;26.14;32.80;96717.03;6185685;23;20021;-77
2023/07/14 09:55:52;;;;;;;1.30;1.08;;;;;;;26.12;32.34;96714.63;6185783;23;20021;-75
2023/07/14 09:58:22;;;;;;;1.85;1.00;;;;;;;26.09;32.82;96710.66;6185742;23;20371;-75
2023/07/14 10:00:54;;;;;;;1.42;1.00;;;;;;;26.09;33.17;96710.66;6185400;23;20079;-75
2023/07/14 10:03:25;;;;;;;5.63;1.77;;;;;;;26.09;33.72;96704.50;6185438;23;20478;-76
2023/07/14 10:06:16;;;;;;;3.63;1.40;;;;;;;26.14;33.46;96709.03;6185674;23;20028;-76
2023/07/14 10:08:47;;;;;;;3.33;0.80;;;;;;;26.13;33.20;96704.72;6185497;23;20045;-76
2023/07/14 10:11:22;;;;;;;7.68;1.20;;;;;;;26.13;32.79;96708.22;6185104;23;20099;-76
2023/07/14 10:13:54;;;;;;;2.33;0.95;;;;;;;26.13;32.76;96704.72;6185349;23;20025;-76
2023/07/14 10:16:23;;;;;;;1.85;0.95;;;;;;;26.16;32.54;96709.53;6185562;23;20024;-76
2023/07/14 10:18:53;;;;;;;2.75;0.98;;;;;;;26.13;32.36;96699.38;6185458;23;20021;-76
2023/07/14 10:21:27;;;;;;;1.90;1.00;;;;;;;26.11;32.94;96702.38;6204264;23;20085;-76
2023/07/14 10:24:04;;;;;;;1.58;1.13;;;;;;;26.15;33.06;96700.72;6185532;23;20029;-77
2023/07/14 10:26:39;;;;;;;4.88;1.08;;;;;;;26.22;32.85;96697.72;6185039;23;20406;-76
2023/07/14 10:29:15;;;;;;;2.78;1.50;;;;;;;26.25;32.62;96695.28;6185126;23;20017;-77
2023/07/14 10:31:48;;;;;;;2.33;1.20;;;;;;;26.26;33.05;96688.88;6184985;23;20025;-76
2023/07/14 10:34:49;;;;;;;2.15;1.17;;;;;;;26.33;33.00;96693.06;6185299;23;20088;-77
2023/07/14 10:37:24;;;;;;;2.72;1.08;;;;;;;26.35;32.01;96677.56;6184935;23;20470;-76
2023/07/14 10:39:58;;;;;;;3.35;1.23;;;;;;;26.36;32.45;96676.47;6185024;23;20032;-76
2023/07/14 10:42:32;;;;;;;2.05;1.38;;;;;;;26.35;31.83;96672.19;6184973;23;20025;-77
2023/07/14 10:45:00;;;;;;;1.40;0.80;;;;;;;26.31;32.68;96664.75;6185212;23;20025;-76
2023/07/14 10:47:32;;;;;;;2.47;1.00;;;;;;;26.26;32.15;96661.31;6185213;23;20395;-77
2023/07/14 10:50:09;;;;;;;2.17;0.70;;;;;;;26.21;32.91;96661.38;6196704;23;20005;-82
2023/07/14 10:52:42;;;;;;;1.80;0.77;;;;;;;26.22;32.70;96657.63;6214866;23;20024;-82
2023/07/14 10:55:17;;;;;;;2.25;1.00;;;;;;;26.21;32.87;96659.47;6214820;23;20013;-82
2023/07/14 10:57:53;;;;;;;3.53;1.10;;;;;;;26.15;33.18;96660.63;6214767;23;20001;-82
2023/07/14 11:00:28;;;;;;;2.72;1.25;;;;;;;26.09;32.88;96657.19;6184748;23;20033;-82
2023/07/14 11:03:20;;;;;;;3.03;1.20;;;;;;;26.06;33.39;96641.72;6184630;23;20009;-82
2023/07/14 11:05:55;;;;;;;;;;;;;;;26.10;33.61;96648.06;6185033;23;20006;-82
2023/07/14 11:08:25;;;;;;;5.10;1.33;;;;;;;26.03;32.68;96646.81;6184397;23;19922;-82
2023/07/14 11:11:05;;;;;;;1.58;1.25;;;;;;;25.99;33.85;96648.44;6184429;23;20065;-82
2023/07/14 11:13:45;;;;;;;5.05;1.25;;;;;;;25.97;33.64;96643.38;6184494;23;20061;-82
2023/07/14 11:16:20;;;;;;;3.50;1.17;;;;;;;25.96;33.83;96635.66;6184705;23;20006;-81
2023/07/14 11:19:00;;;;;;;5.68;1.20;;;;;;;25.95;34.81;96639.41;6184466;23;20076;-82
2023/07/14 11:21:40;;;;;;;4.35;1.25;;;;;;;25.98;34.36;96636.19;6184408;23;20029;-82
2023/07/14 11:24:20;;;;;;;2.42;1.23;;;;;;;26.01;33.95;96638.28;6184511;23;20029;-81
2023/07/14 11:27:06;;;;;;;2.25;1.15;;;;;;;25.98;34.16;96638.84;6184458;23;20077;-82
2023/07/14 11:29:43;;;;;;;5.07;1.38;;;;;;;25.98;34.88;96633.50;6184334;23;20052;-82
2023/07/14 11:32:20;;;;;;;1.55;1.20;;;;;;;25.97;34.89;96632.69;6184489;23;20009;-82
2023/07/14 11:34:58;;;;;;;3.50;1.35;;;;;;;25.97;34.79;96631.91;6184350;23;20025;-82
2023/07/14 11:37:41;;;;;;;2.55;1.20;;;;;;;26.02;35.32;96638.00;6184166;23;20005;-82
2023/07/14 11:40:19;;;;;;;;;;;;;;;26.06;35.05;96640.91;6184546;23;20010;-82
2023/07/14 11:42:56;;;;;;;1.75;1.00;;;;;;;26.05;35.38;96639.31;6184274;23;19924;-81
2023/07/14 11:45:30;;;;;;;2.63;1.48;;;;;;;26.06;34.95;96631.03;6184473;23;20061;-82
2023/07/14 11:48:04;;;;;;;6.97;1.20;;;;;;;26.05;34.62;96626.75;6184119;23;20070;-82
2023/07/14 11:50:37;;;;;;;3.25;1.60;;;;;;;26.03;34.58;96633.44;6184023;23;20010;-82
2023/07/14 11:53:21;;;;;;;1.52;1.08;;;;;;;26.02;34.92;96639.84;6184063;23;20025;-81
2023/07/14 11:55:54;;;;;;;1.33;1.20;;;;;;;26.01;34.84;96631.06;6184017;23;20020;-81